Time;durP1;ratioP1;P1;durP2;ratioP2;P2;SDS_P1;SDS_P2;PMS_P1;PMS_P2;Temp;Humidity;BMP_temperature;BMP_pressure;BME280_temperature;BME280_humidity;BME280_pressure;Samples;Min_cycle;Max_cycle;Signal;HPM_P1;HPM_P2
2022/10/16 00:00:21;;;;;;;;;;;;;;;;;;5098679;28;44729;-81
2022/10/16 00:02:48;;;;;;;;;;;;;;;;;;5116367;28;44549;-81
2022/10/16 00:05:15;;;;;;;;;;;;;;;;;;5118474;28;44124;-81
2022/10/16 00:07:42;;;;;;;;;;;;;;;;;;5115208;28;43618;-82
2022/10/16 00:10:09;;;;;;;;;;;;;;;;;;5118533;28;43443;-81
2022/10/16 00:12:36;;;;;;;;;;;;;;;;;;5117811;28;44733;-81
2022/10/16 00:15:03;;;;;;;;;;;;;;;;;;5115872;27;44103;-81
2022/10/16 00:17:30;;;;;;;;;;;;;;;;;;5116111;28;42706;-81
2022/10/16 00:19:57;;;;;;;;;;;;;;;;;;5113178;28;44874;-80
2022/10/16 00:22:24;;;;;;;;;;;;;;;;;;5101036;28;46653;-81
2022/10/16 00:24:51;;;;;;;;;;;;;;;;;;5116633;28;43678;-81
2022/10/16 00:27:18;;;;;;;;;;;;;;;;;;5110758;28;41705;-83
2022/10/16 00:29:45;;;;;;;;;;;;;;;;;;5099028;28;44848;-81
2022/10/16 00:32:12;;;;;;;;;;;;;;;;;;5116765;28;45692;-81
2022/10/16 00:34:39;;;;;;;;;;;;;;;;;;5113893;28;44972;-81
2022/10/16 00:37:06;;;;;;;;;;;;;;;;;;5097996;28;43562;-81
2022/10/16 00:39:33;;;;;;;;;;;;;;;;;;5116746;28;45806;-82
2022/10/16 00:42:03;;;;;;;;;;;;;;;;;;5115922;28;44789;-81
2022/10/16 00:44:30;;;;;;;;;;;;;;;;;;5117276;28;45843;-82
2022/10/16 00:46:57;;;;;;;;;;;;;;;;;;5116895;28;43695;-81
2022/10/16 00:49:24;;;;;;;;;;;;;;;;;;5117218;28;44737;-82
2022/10/16 00:51:51;;;;;;;;;;;;;;;;;;5114081;28;44580;-82
2022/10/16 00:54:18;;;;;;;;;;;;;;;;;;5113573;28;45098;-81
2022/10/16 00:56:45;;;;;;;;;;;;;;;;;;5112536;28;41340;-81
2022/10/16 00:59:12;;;;;;;;;;;;;;;;;;5115539;28;45905;-81
2022/10/16 01:01:39;;;;;;;;;;;;;;;;;;5112598;28;44914;-81
2022/10/16 01:04:06;;;;;;;;;;;;;;;;;;5113418;28;43132;-82
2022/10/16 01:06:33;;;;;;;;;;;;;;;;;;5114072;28;43611;-81
2022/10/16 01:09:03;;;;;;;;;;;;;;;;;;5112234;28;46284;-81
2022/10/16 01:11:30;;;;;;;;;;;;;;;;;;5110971;28;43797;-80
2022/10/16 01:13:57;;;;;;;;;;;;;;;;;;5113096;28;42792;-82
2022/10/16 01:16:24;;;;;;;;;;;;;;;;;;5106941;28;43906;-82
2022/10/16 01:18:51;;;;;;;;;;;;;;;;;;5110603;28;44809;-81
2022/10/16 01:21:17;;;;;;;;;;;;;;;;;;5113679;28;44976;-82
2022/10/16 01:23:44;;;;;;;;;;;;;;;;;;5113667;28;44977;-83
2022/10/16 01:26:11;;;;;;;;;;;;;;;;;;5111078;28;43501;-81
2022/10/16 01:28:38;;;;;;;;;;;;;;;;;;5109843;28;44704;-83
2022/10/16 01:31:05;;;;;;;;;;;;;;;;;;5117308;28;43162;-81
2022/10/16 01:33:32;;;;;;;;;;;;;;;;;;5113178;28;42664;-83
2022/10/16 01:35:59;;;;;;;;;;;;;;;;;;5117442;28;43964;-81
2022/10/16 01:38:26;;;;;;;;;;;;;;;;;;5103401;28;45026;-82
2022/10/16 01:40:56;;;;;;;;;;;;;;;;;;5120245;28;44845;-81
2022/10/16 01:43:23;;;;;;;;;;;;;;;;;;5112837;28;44008;-81
2022/10/16 01:45:50;;;;;;;;;;;;;;;;;;5113741;28;42603;-81
2022/10/16 01:48:17;;;;;;;;;;;;;;;;;;5116541;28;44776;-82
2022/10/16 01:50:43;;;;;;;;;;;;;;;;;;5111419;28;43887;-82
2022/10/16 01:53:10;;;;;;;;;;;;;;;;;;5113025;28;44040;-82
2022/10/16 01:55:37;;;;;;;;;;;;;;;;;;5115542;28;42530;-80
2022/10/16 01:58:04;;;;;;;;;;;;;;;;;;5114897;28;45192;-82
2022/10/16 02:00:31;;;;;;;;;;;;;;;;;;5112104;28;44410;-83
2022/10/16 02:02:58;;;;;;;;;;;;;;;;;;5109791;28;43857;-83
2022/10/16 02:05:25;;;;;;;;;;;;;;;;;;5094729;28;43704;-82
2022/10/16 02:07:52;;;;;;;;;;;;;;;;;;5106841;28;43102;-82
2022/10/16 02:10:19;;;;;;;;;;;;;;;;;;5109901;28;46051;-84
2022/10/16 02:12:46;;;;;;;;;;;;;;;;;;5111225;28;45076;-83
2022/10/16 02:15:13;;;;;;;;;;;;;;;;;;5109723;28;43702;-82
2022/10/16 02:17:40;;;;;;;;;;;;;;;;;;5109868;28;44816;-83
2022/10/16 02:20:07;;;;;;;;;;;;;;;;;;5106131;28;44591;-82
2022/10/16 02:22:35;;;;;;;;;;;;;;;;;;5109820;28;44104;-82
2022/10/16 02:25:02;;;;;;;;;;;;;;;;;;5111405;28;43990;-82
2022/10/16 02:27:29;;;;;;;;;;;;;;;;;;5094455;28;44012;-83
2022/10/16 02:29:58;;;;;;;;;;;;;;;;;;5111044;28;44764;-83
2022/10/16 02:32:25;;;;;;;;;;;;;;;;;;5110409;28;44068;-82
2022/10/16 02:34:52;;;;;;;;;;;;;;;;;;5114438;28;43711;-82
2022/10/16 02:37:19;;;;;;;;;;;;;;;;;;5097866;28;45385;-82
2022/10/16 02:39:46;;;;;;;;;;;;;;;;;;5111648;28;42265;-82
2022/10/16 02:42:13;;;;;;;;;;;;;;;;;;5112179;28;43716;-82
2022/10/16 02:44:40;;;;;;;;;;;;;;;;;;5109587;28;43683;-83
2022/10/16 02:47:07;;;;;;;;;;;;;;;;;;5092239;28;43979;-82
2022/10/16 02:49:34;;;;;;;;;;;;;;;;;;5090563;28;44456;-82
2022/10/16 02:52:01;;;;;;;;;;;;;;;;;;5109828;28;43186;-82
2022/10/16 02:54:28;;;;;;;;;;;;;;;;;;5109518;28;44037;-84
2022/10/16 02:56:55;;;;;;;;;;;;;;;;;;5108881;28;43760;-82
2022/10/16 02:59:22;;;;;;;;;;;;;;;;;;5110048;28;45745;-82
2022/10/16 03:01:49;;;;;;;;;;;;;;;;;;5108192;28;45054;-83
2022/10/16 03:04:16;;;;;;;;;;;;;;;;;;5110921;28;43551;-83
2022/10/16 03:06:43;;;;;;;;;;;;;;;;;;5109221;28;44856;-82
2022/10/16 03:09:10;;;;;;;;;;;;;;;;;;5111230;28;44759;-83
2022/10/16 03:11:40;;;;;;;;;;;;;;;;;;5111670;28;42876;-83
2022/10/16 03:14:07;;;;;;;;;;;;;;;;;;5092418;28;41952;-83
2022/10/16 03:16:34;;;;;;;;;;;;;;;;;;5111025;28;44731;-83
2022/10/16 03:19:01;;;;;;;;;;;;;;;;;;5107326;28;43133;-83
2022/10/16 03:21:29;;;;;;;;;;;;;;;;;;5113423;28;44395;-82
2022/10/16 03:23:56;;;;;;;;;;;;;;;;;;5111614;28;42248;-83
2022/10/16 03:26:23;;;;;;;;;;;;;;;;;;5085417;28;43089;-82
2022/10/16 03:28:50;;;;;;;;;;;;;;;;;;5110600;28;44781;-84
2022/10/16 03:31:17;;;;;;;;;;;;;;;;;;5109460;28;44570;-83
2022/10/16 03:33:44;;;;;;;;;;;;;;;;;;5102212;28;43007;-83
2022/10/16 03:36:11;;;;;;;;;;;;;;;;;;5107342;28;44723;-82
2022/10/16 03:38:38;;;;;;;;;;;;;;;;;;5111955;28;41859;-83
2022/10/16 03:41:05;;;;;;;;;;;;;;;;;;5110262;28;45108;-83
2022/10/16 03:43:32;;;;;;;;;;;;;;;;;;5109671;28;44014;-83
2022/10/16 03:45:59;;;;;;;;;;;;;;;;;;5110763;28;44752;-83
2022/10/16 03:48:27;;;;;;;;;;;;;;;;;;5110531;28;45494;-84
2022/10/16 03:50:54;;;;;;;;;;;;;;;;;;5111217;27;44984;-83
2022/10/16 03:53:21;;;;;;;;;;;;;;;;;;5099519;28;43559;-83
2022/10/16 03:55:48;;;;;;;;;;;;;;;;;;5116506;28;44838;-83
2022/10/16 03:58:15;;;;;;;;;;;;;;;;;;5113838;28;44722;-82
2022/10/16 04:00:42;;;;;;;;;;;;;;;;;;5116079;28;44051;-83
2022/10/16 04:03:09;;;;;;;;;;;;;;;;;;5109454;28;43541;-82
2022/10/16 04:05:36;;;;;;;;;;;;;;;;;;5096049;28;44082;-82
2022/10/16 04:08:03;;;;;;;;;;;;;;;;;;5110861;28;44852;-83
2022/10/16 04:10:30;;;;;;;;;;;;;;;;;;5111364;28;44001;-82
2022/10/16 04:12:57;;;;;;;;;;;;;;;;;;5093478;28;44654;-83
2022/10/16 04:15:24;;;;;;;;;;;;;;;;;;5114218;28;45518;-84
2022/10/16 04:17:52;;;;;;;;;;;;;;;;;;5111645;28;44813;-82
2022/10/16 04:20:18;;;;;;;;;;;;;;;;;;5116416;28;44086;-82
2022/10/16 04:22:45;;;;;;;;;;;;;;;;;;5096747;28;43693;-82
2022/10/16 04:25:12;;;;;;;;;;;;;;;;;;5115552;28;44718;-82
2022/10/16 04:27:39;;;;;;;;;;;;;;;;;;5111002;28;43656;-83
2022/10/16 04:30:09;;;;;;;;;;;;;;;;;;5112240;28;43278;-83
2022/10/16 04:32:36;;;;;;;;;;;;;;;;;;5115610;28;43336;-82
2022/10/16 04:35:03;;;;;;;;;;;;;;;;;;5115914;28;44840;-82
2022/10/16 04:37:30;;;;;;;;;;;;;;;;;;5111779;28;45278;-83
2022/10/16 04:39:57;;;;;;;;;;;;;;;;;;5112131;28;44961;-83
2022/10/16 04:42:24;;;;;;;;;;;;;;;;;;5109590;28;43552;-84
2022/10/16 04:44:51;;;;;;;;;;;;;;;;;;5115366;28;44845;-82
2022/10/16 04:47:18;;;;;;;;;;;;;;;;;;5111101;28;44669;-83
2022/10/16 04:49:45;;;;;;;;;;;;;;;;;;5112237;28;44829;-83
2022/10/16 04:52:15;;;;;;;;;;;;;;;;;;5094158;28;43472;-82
2022/10/16 04:54:44;;;;;;;;;;;;;;;;;;5111329;28;43911;-83
2022/10/16 04:57:11;;;;;;;;;;;;;;;;;;5114275;28;44688;-84
2022/10/16 04:59:38;;;;;;;;;;;;;;;;;;5111663;28;43990;-82
2022/10/16 05:02:05;;;;;;;;;;;;;;;;;;5112187;27;43699;-82
2022/10/16 05:04:32;;;;;;;;;;;;;;;;;;5113750;28;45219;-82
2022/10/16 05:06:59;;;;;;;;;;;;;;;;;;5110977;28;44072;-82
2022/10/16 05:09:26;;;;;;;;;;;;;;;;;;5112063;28;43232;-83
2022/10/16 05:11:53;;;;;;;;;;;;;;;;;;5109984;28;43587;-82
2022/10/16 05:14:20;;;;;;;;;;;;;;;;;;5110874;28;44883;-83
2022/10/16 05:16:48;;;;;;;;;;;;;;;;;;5114962;28;44743;-82
2022/10/16 05:19:15;;;;;;;;;;;;;;;;;;5113246;28;43994;-83
2022/10/16 05:21:52;;;;;;;;;;;;;;;;;;5109221;28;43692;-83
2022/10/16 05:24:19;;;;;;;;;;;;;;;;;;5107811;28;44855;-82
2022/10/16 05:26:46;;;;;;;;;;;;;;;;;;5108083;28;46059;-83
2022/10/16 05:29:13;;;;;;;;;;;;;;;;;;5110162;28;44744;-83
2022/10/16 05:31:40;;;;;;;;;;;;;;;;;;5111808;28;43690;-82
2022/10/16 05:34:07;;;;;;;;;;;;;;;;;;5112177;28;44448;-82
2022/10/16 05:36:34;;;;;;;;;;;;;;;;;;5093058;28;45703;-83
2022/10/16 05:39:01;;;;;;;;;;;;;;;;;;5111374;28;44079;-83
2022/10/16 05:41:28;;;;;;;;;;;;;;;;;;5112891;28;42907;-82
2022/10/16 05:43:55;;;;;;;;;;;;;;;;;;5112322;28;44743;-82
2022/10/16 05:46:22;;;;;;;;;;;;;;;;;;5111316;28;44366;-83
2022/10/16 05:48:49;;;;;;;;;;;;;;;;;;5111778;28;44433;-83
2022/10/16 05:51:16;;;;;;;;;;;;;;;;;;5110687;28;43684;-82
2022/10/16 05:53:43;;;;;;;;;;;;;;;;;;5109959;28;44680;-83
2022/10/16 05:56:15;;;;;;;;;;;;;;;;;;5109094;28;19936;-82
2022/10/16 05:58:44;;;;;;;;;;;;;;;;;;5109897;28;43963;-81
2022/10/16 06:01:11;;;;;;;;;;;;;;;;;;5090702;28;32967;-83
2022/10/16 06:03:38;;;;;;;;;;;;;;;;;;5091081;28;44868;-83
2022/10/16 06:06:05;;;;;;;;;;;;;;;;;;5110496;28;45482;-82
2022/10/16 06:08:35;;;;;;;;;;;;;;;;;;5108889;28;43811;-83
2022/10/16 06:11:02;;;;;;;;;;;;;;;;;;5109678;28;43658;-82
2022/10/16 06:13:29;;;;;;;;;;;;;;;;;;5108803;27;44732;-83
2022/10/16 06:15:56;;;;;;;;;;;;;;;;;;5110473;28;45949;-82
2022/10/16 06:18:23;;;;;;;;;;;;;;;;;;5110766;28;45209;-82
2022/10/16 06:20:52;;;;;;;;;;;;;;;;;;5109417;28;46799;-82
2022/10/16 06:23:24;;;;;;;;;;;;;;;;;;5109329;28;43459;-83
2022/10/16 06:25:51;;;;;;;;;;;;;;;;;;5110844;28;43371;-83
2022/10/16 06:28:18;;;;;;;;;;;;;;;;;;5109397;28;42887;-82
2022/10/16 06:30:45;;;;;;;;;;;;;;;;;;5106916;28;44570;-82
2022/10/16 06:33:12;;;;;;;;;;;;;;;;;;5110102;28;44665;-82
2022/10/16 06:35:48;;;;;;;;;;;;;;;;;;5088208;28;42332;-82
2022/10/16 06:38:15;;;;;;;;;;;;;;;;;;5092662;28;41986;-83
2022/10/16 06:40:42;;;;;;;;;;;;;;;;;;5089627;28;43242;-81
2022/10/16 06:43:09;;;;;;;;;;;;;;;;;;5105056;28;44849;-84
2022/10/16 06:45:36;;;;;;;;;;;;;;;;;;5093811;28;45100;-80
2022/10/16 06:48:06;;;;;;;;;;;;;;;;;;5108137;28;44130;-82
2022/10/16 06:50:33;;;;;;;;;;;;;;;;;;5105392;28;43272;-82
2022/10/16 06:53:05;;;;;;;;;;;;;;;;;;5109448;28;44715;-82
2022/10/16 06:55:32;;;;;;;;;;;;;;;;;;5106104;28;44764;-81
2022/10/16 06:57:59;;;;;;;;;;;;;;;;;;5092680;28;42404;-83
2022/10/16 07:00:30;;;;;;;;;;;;;;;;;;5109428;28;43384;-82
2022/10/16 07:02:57;;;;;;;;;;;;;;;;;;5110840;28;44624;-82
2022/10/16 07:05:24;;;;;;;;;;;;;;;;;;5086255;28;43613;-81
2022/10/16 07:07:51;;;;;;;;;;;;;;;;;;5104867;28;44570;-81
2022/10/16 07:10:18;;;;;;;;;;;;;;;;;;5101506;28;41956;-80
2022/10/16 07:12:45;;;;;;;;;;;;;;;;;;5108736;28;45609;-80
2022/10/16 07:15:13;;;;;;;;;;;;;;;;;;5101698;28;46074;-81
2022/10/16 07:17:40;;;;;;;;;;;;;;;;;;5105419;28;43633;-81
2022/10/16 07:20:07;;;;;;;;;;;;;;;;;;5112184;28;42149;-81
2022/10/16 07:22:34;;;;;;;;;;;;;;;;;;5105425;28;45456;-82
2022/10/16 07:25:01;;;;;;;;;;;;;;;;;;5089828;28;43686;-81
2022/10/16 07:27:28;;;;;;;;;;;;;;;;;;5112097;28;44367;-83
2022/10/16 07:29:57;;;;;;;;;;;;;;;;;;5108581;28;43691;-81
2022/10/16 07:32:25;;;;;;;;;;;;;;;;;;5095942;28;45114;-81
2022/10/16 07:34:52;;;;;;;;;;;;;;;;;;5110068;28;44351;-81
2022/10/16 07:37:22;;;;;;;;;;;;;;;;;;5122734;28;44563;-82
2022/10/16 07:39:49;;;;;;;;;;;;;;;;;;5121290;28;43243;-82
2022/10/16 07:42:16;;;;;;;;;;;;;;;;;;5115752;28;44714;-81
2022/10/16 07:44:43;;;;;;;;;;;;;;;;;;5115157;28;44625;-81
2022/10/16 07:47:10;;;;;;;;;;;;;;;;;;5121867;28;43976;-81
2022/10/16 07:49:37;;;;;;;;;;;;;;;;;;5120290;28;42763;-81
2022/10/16 07:52:04;;;;;;;;;;;;;;;;;;5104464;28;44868;-82
2022/10/16 07:54:31;;;;;;;;;;;;;;;;;;5106385;28;45512;-81
2022/10/16 07:56:58;;;;;;;;;;;;;;;;;;5109405;27;45273;-84
2022/10/16 07:59:28;;;;;;;;;;;;;;;;;;5103565;28;42530;-82
2022/10/16 08:01:55;;;;;;;;;;;;;;;;;;5117978;28;44424;-82
2022/10/16 08:04:24;;;;;;;;;;;;;;;;;;5100164;28;44043;-83
2022/10/16 08:06:54;;;;;;;;;;;;;;;;;;5096757;28;43617;-82
2022/10/16 08:09:28;;;;;;;;;;;;;;;;;;5117034;28;43564;-83
2022/10/16 08:11:55;;;;;;;;;;;;;;;;;;5112971;28;45906;-82
2022/10/16 08:14:28;;;;;;;;;;;;;;;;;;5113002;28;43714;-82
2022/10/16 08:16:55;;;;;;;;;;;;;;;;;;5115781;28;42805;-82
2022/10/16 08:19:28;;;;;;;;;;;;;;;;;;5120054;28;42252;-81
2022/10/16 08:22:01;;;;;;;;;;;;;;;;;;5117850;28;45144;-82
2022/10/16 08:24:31;;;;;;;;;;;;;;;;;;5122306;28;43873;-82
2022/10/16 08:27:06;;;;;;;;;;;;;;;;;;5106280;28;40924;-82
2022/10/16 08:29:34;;;;;;;;;;;;;;;;;;5118545;28;43566;-81
2022/10/16 08:32:02;;;;;;;;;;;;;;;;;;5100305;28;44658;-82
2022/10/16 08:34:35;;;;;;;;;;;;;;;;;;5111963;28;41856;-83
2022/10/16 08:37:05;;;;;;;;;;;;;;;;;;5115370;28;45313;-82
2022/10/16 08:39:32;;;;;;;;;;;;;;;;;;5103331;28;44240;-82
2022/10/16 08:41:59;;;;;;;;;;;;;;;;;;5117083;28;45083;-83
2022/10/16 08:44:28;;;;;;;;;;;;;;;;;;5102641;28;46005;-82
2022/10/16 08:47:00;;;;;;;;;;;;;;;;;;5108296;28;46513;-81
2022/10/16 08:49:31;;;;;;;;;;;;;;;;;;5110905;28;41062;-82
2022/10/16 08:51:58;;;;;;;;;;;;;;;;;;5115729;28;45977;-82
2022/10/16 08:54:25;;;;;;;;;;;;;;;;;;5119777;28;45032;-81
2022/10/16 08:56:57;;;;;;;;;;;;;;;;;;5108839;28;42237;-82
2022/10/16 08:59:28;;;;;;;;;;;;;;;;;;5117663;28;40990;-82
2022/10/16 09:01:59;;;;;;;;;;;;;;;;;;5120292;28;43973;-82
2022/10/16 09:04:33;;;;;;;;;;;;;;;;;;5101035;28;46157;-82
2022/10/16 09:07:00;;;;;;;;;;;;;;;;;;5118767;28;41790;-82
2022/10/16 09:09:40;;;;;;;;;;;;;;;;;;5118909;28;43448;-82
2022/10/16 09:12:08;;;;;;;;;;;;;;;;;;5116236;28;44846;-82
2022/10/16 09:14:38;;;;;;;;;;;;;;;;;;5119112;28;44724;-82
2022/10/16 09:17:05;;;;;;;;;;;;;;;;;;5112458;28;42364;-82
2022/10/16 09:19:33;;;;;;;;;;;;;;;;;;5116529;28;42457;-82
2022/10/16 09:22:07;;;;;;;;;;;;;;;;;;5106524;28;45809;-83
2022/10/16 09:24:35;;;;;;;;;;;;;;;;;;5120421;28;46094;-83
2022/10/16 09:27:08;;;;;;;;;;;;;;;;;;5097184;28;43129;-82
2022/10/16 09:29:40;;;;;;;;;;;;;;;;;;5094663;28;42182;-82
2022/10/16 09:32:10;;;;;;;;;;;;;;;;;;5102465;28;43167;-83
2022/10/16 09:34:39;;;;;;;;;;;;;;;;;;5111059;28;43705;-83
2022/10/16 09:37:07;;;;;;;;;;;;;;;;;;5097429;28;45588;-81
2022/10/16 09:39:38;;;;;;;;;;;;;;;;;;5093713;28;43664;-83
2022/10/16 09:42:05;;;;;;;;;;;;;;;;;;5100370;28;42527;-83
2022/10/16 09:44:36;;;;;;;;;;;;;;;;;;5099184;28;45620;-83
2022/10/16 09:47:13;;;;;;;;;;;;;;;;;;5100614;28;42565;-82
2022/10/16 09:49:48;;;;;;;;;;;;;;;;;;5096994;27;44632;-82
2022/10/16 09:52:16;;;;;;;;;;;;;;;;;;5098558;28;42403;-83
2022/10/16 09:54:47;;;;;;;;;;;;;;;;;;5111069;27;42148;-82
2022/10/16 09:57:14;;;;;;;;;;;;;;;;;;5105512;28;42600;-83
2022/10/16 09:59:41;;;;;;;;;;;;;;;;;;5099670;28;42632;-82
2022/10/16 10:02:18;;;;;;;;;;;;;;;;;;5098693;28;45487;-82
2022/10/16 10:04:45;;;;;;;;;;;;;;;;;;5099316;28;45786;-82
2022/10/16 10:07:12;;;;;;;;;;;;;;;;;;5109000;28;42816;-82
2022/10/16 10:09:42;;;;;;;;;;;;;;;;;;5108195;28;40602;-83
2022/10/16 10:12:09;;;;;;;;;;;;;;;;;;5104795;28;42818;-82
2022/10/16 10:14:39;;;;;;;;;;;;;;;;;;5098590;28;46367;-83
2022/10/16 10:17:13;;;;;;;;;;;;;;;;;;5097417;28;45203;-82
2022/10/16 10:19:40;;;;;;;;;;;;;;;;;;5102293;28;44601;-83
2022/10/16 10:22:19;;;;;;;;;;;;;;;;;;5097511;28;43671;-84
2022/10/16 10:24:51;;;;;;;;;;;;;;;;;;5094117;28;48019;-82
2022/10/16 10:27:22;;;;;;;;;;;;;;;;;;5101827;28;46083;-82
2022/10/16 10:29:53;;;;;;;;;;;;;;;;;;5092060;28;44583;-82
2022/10/16 10:32:20;;;;;;;;;;;;;;;;;;5088822;28;46266;-82
2022/10/16 10:34:50;;;;;;;;;;;;;;;;;;5092414;28;44082;-82
2022/10/16 10:37:29;;;;;;;;;;;;;;;;;;5099677;28;43066;-83
2022/10/16 10:39:57;;;;;;;;;;;;;;;;;;5098966;28;43703;-82
2022/10/16 10:42:31;;;;;;;;;;;;;;;;;;5095520;28;44619;-82
2022/10/16 10:45:08;;;;;;;;;;;;;;;;;;5097260;28;43683;-82
2022/10/16 10:47:36;;;;;;;;;;;;;;;;;;5096605;28;44829;-82
2022/10/16 10:50:03;;;;;;;;;;;;;;;;;;5090217;28;42629;-82
2022/10/16 10:52:33;;;;;;;;;;;;;;;;;;5097839;28;42621;-82
2022/10/16 10:55:01;;;;;;;;;;;;;;;;;;5093783;28;45989;-82
2022/10/16 10:57:43;;;;;;;;;;;;;;;;;;5093372;28;43747;-81
2022/10/16 11:00:10;;;;;;;;;;;;;;;;;;5092127;28;43371;-82
2022/10/16 11:02:40;;;;;;;;;;;;;;;;;;5099567;28;43276;-81
2022/10/16 11:05:08;;;;;;;;;;;;;;;;;;5105878;28;44548;-82
2022/10/16 11:07:35;;;;;;;;;;;;;;;;;;5102008;28;44079;-82
2022/10/16 11:10:05;;;;;;;;;;;;;;;;;;5097586;28;42470;-81
2022/10/16 11:12:33;;;;;;;;;;;;;;;;;;5103751;28;43839;-82
2022/10/16 11:15:04;;;;;;;;;;;;;;;;;;5108719;28;45392;-82
2022/10/16 11:17:32;;;;;;;;;;;;;;;;;;5102596;28;44857;-85
2022/10/16 11:20:02;;;;;;;;;;;;;;;;;;5113705;28;42665;-83
2022/10/16 11:22:29;;;;;;;;;;;;;;;;;;5101233;28;44733;-82
2022/10/16 11:24:56;;;;;;;;;;;;;;;;;;5103942;28;44559;-81
2022/10/16 11:27:24;;;;;;;;;;;;;;;;;;5108181;28;19924;-83
2022/10/16 11:30:04;;;;;;;;;;;;;;;;;;5114895;28;45195;-82
2022/10/16 11:32:34;;;;;;;;;;;;;;;;;;5127624;28;44616;-82
2022/10/16 11:35:03;;;;;;;;;;;;;;;;;;5118543;28;44451;-83
2022/10/16 11:37:31;;;;;;;;;;;;;;;;;;5112131;28;43955;-82
2022/10/16 11:39:58;;;;;;;;;;;;;;;;;;5115736;28;43867;-82
2022/10/16 11:42:27;;;;;;;;;;;;;;;;;;5123626;28;43056;-83
2022/10/16 11:44:54;;;;;;;;;;;;;;;;;;5125511;28;44103;-82
2022/10/16 11:47:21;;;;;;;;;;;;;;;;;;5124207;28;44080;-83
2022/10/16 11:50:08;;;;;;;;;;;;;;;;;;5127425;28;19924;-83
2022/10/16 11:52:35;;;;;;;;;;;;;;;;;;5123616;28;43317;-84
2022/10/16 11:55:02;;;;;;;;;;;;;;;;;;5125692;28;44344;-83
2022/10/16 11:57:29;;;;;;;;;;;;;;;;;;5120158;28;45995;-82
2022/10/16 11:59:56;;;;;;;;;;;;;;;;;;5108797;28;44058;-82
2022/10/16 12:02:23;;;;;;;;;;;;;;;;;;5103797;28;46133;-82
2022/10/16 12:04:51;;;;;;;;;;;;;;;;;;5126723;28;45491;-82
2022/10/16 12:07:20;;;;;;;;;;;;;;;;;;5118697;28;45066;-82
2022/10/16 12:09:50;;;;;;;;;;;;;;;;;;5129054;28;42784;-83
2022/10/16 12:12:17;;;;;;;;;;;;;;;;;;5107610;28;42426;-82
2022/10/16 12:14:45;;;;;;;;;;;;;;;;;;5097366;28;43856;-82
2022/10/16 12:17:32;;;;;;;;;;;;;;;;;;5105639;28;19925;-82
2022/10/16 12:19:59;;;;;;;;;;;;;;;;;;5118132;28;42370;-83
2022/10/16 12:22:26;;;;;;;;;;;;;;;;;;5110261;28;45291;-81
2022/10/16 12:24:54;;;;;;;;;;;;;;;;;;5122646;28;43215;-83
2022/10/16 12:27:24;;;;;;;;;;;;;;;;;;5115443;27;44543;-83
2022/10/16 12:29:51;;;;;;;;;;;;;;;;;;5115713;27;43386;-83
2022/10/16 12:32:18;;;;;;;;;;;;;;;;;;5111045;27;46230;-82
2022/10/16 12:35:06;;;;;;;;;;;;;;;;;;5111714;27;19928;-87
2022/10/16 12:37:38;;;;;;;;;;;;;;;;;;5101250;28;44386;-89
2022/10/16 12:40:08;;;;;;;;;;;;;;;;;;5090889;28;43166;-83
2022/10/16 12:42:35;;;;;;;;;;;;;;;;;;5104133;27;42870;-86
2022/10/16 12:45:05;;;;;;;;;;;;;;;;;;5137735;27;43505;-84
2022/10/16 12:47:32;;;;;;;;;;;;;;;;;;5114188;28;43639;-87
2022/10/16 12:50:10;;;;;;;;;;;;;;;;;;5092118;27;44719;-87
2022/10/16 12:52:44;;;;;;;;;;;;;;;;;;5088084;28;46098;-84
2022/10/16 12:55:11;;;;;;;;;;;;;;;;;;5085079;28;45832;-82
2022/10/16 12:57:38;;;;;;;;;;;;;;;;;;5098313;28;45129;-84
2022/10/16 13:00:05;;;;;;;;;;;;;;;;;;5092313;28;44398;-83
2022/10/16 13:02:32;;;;;;;;;;;;;;;;;;5083919;28;44277;-83
2022/10/16 13:05:08;;;;;;;;;;;;;;;;;;5089782;28;42856;-84
2022/10/16 13:07:35;;;;;;;;;;;;;;;;;;5084918;28;44475;-83
2022/10/16 13:10:03;;;;;;;;;;;;;;;;;;5085409;28;42231;-84
2022/10/16 13:12:33;;;;;;;;;;;;;;;;;;5082580;28;43532;-84
2022/10/16 13:15:02;;;;;;;;;;;;;;;;;;5087034;28;45778;-86
2022/10/16 13:17:33;;;;;;;;;;;;;;;;;;5089613;28;43019;-86
2022/10/16 13:20:02;;;;;;;;;;;;;;;;;;5088944;28;44627;-86
2022/10/16 13:22:32;;;;;;;;;;;;;;;;;;5086163;28;47541;-86
2022/10/16 13:25:00;;;;;;;;;;;;;;;;;;5093764;28;44588;-85
2022/10/16 13:27:39;;;;;;;;;;;;;;;;;;5090421;28;44923;-85
2022/10/16 13:30:09;;;;;;;;;;;;;;;;;;5091665;28;45224;-85
2022/10/16 13:32:36;;;;;;;;;;;;;;;;;;5105224;28;43351;-85
2022/10/16 13:35:03;;;;;;;;;;;;;;;;;;5077384;28;44750;-85
2022/10/16 13:37:31;;;;;;;;;;;;;;;;;;5094168;28;44368;-86
2022/10/16 13:40:02;;;;;;;;;;;;;;;;;;5109929;28;40636;-84
2022/10/16 13:42:29;;;;;;;;;;;;;;;;;;5089994;28;46103;-85
2022/10/16 13:44:59;;;;;;;;;;;;;;;;;;5088538;28;45977;-85
2022/10/16 13:47:29;;;;;;;;;;;;;;;;;;5093529;28;45633;-85
2022/10/16 13:50:03;;;;;;;;;;;;;;;;;;5087827;28;41505;-84
2022/10/16 13:52:30;;;;;;;;;;;;;;;;;;5091536;28;43455;-85
2022/10/16 13:54:57;;;;;;;;;;;;;;;;;;5090162;28;42526;-82
2022/10/16 13:57:27;;;;;;;;;;;;;;;;;;5087676;28;45063;-84
2022/10/16 13:59:54;;;;;;;;;;;;;;;;;;5093365;28;42120;-85
2022/10/16 14:02:23;;;;;;;;;;;;;;;;;;5094349;28;42907;-85
2022/10/16 14:04:56;;;;;;;;;;;;;;;;;;5108953;28;43729;-85
2022/10/16 14:07:25;;;;;;;;;;;;;;;;;;5104001;28;44854;-84
2022/10/16 14:09:53;;;;;;;;;;;;;;;;;;5090422;28;44465;-85
2022/10/16 14:12:20;;;;;;;;;;;;;;;;;;5082220;28;44998;-86
2022/10/16 14:14:50;;;;;;;;;;;;;;;;;;5089018;28;42036;-85
2022/10/16 14:17:25;;;;;;;;;;;;;;;;;;5091543;28;42176;-85
2022/10/16 14:19:53;;;;;;;;;;;;;;;;;;5093577;28;41567;-85
2022/10/16 14:22:26;;;;;;;;;;;;;;;;;;5108453;27;45305;-85
2022/10/16 14:24:55;;;;;;;;;;;;;;;;;;5093797;28;42431;-85
2022/10/16 14:27:22;;;;;;;;;;;;;;;;;;5092743;28;42342;-85
2022/10/16 14:29:53;;;;;;;;;;;;;;;;;;5086295;28;45320;-85
2022/10/16 14:32:25;;;;;;;;;;;;;;;;;;5077024;28;42085;-85
2022/10/16 14:34:53;;;;;;;;;;;;;;;;;;5086085;28;45511;-85
2022/10/16 14:37:23;;;;;;;;;;;;;;;;;;5088892;28;43152;-86
2022/10/16 14:39:53;;;;;;;;;;;;;;;;;;5083969;28;45156;-85
2022/10/16 14:42:20;;;;;;;;;;;;;;;;;;5086790;28;44884;-87
2022/10/16 14:44:47;;;;;;;;;;;;;;;;;;5086897;28;43594;-85
2022/10/16 14:47:14;;;;;;;;;;;;;;;;;;5086930;28;42947;-85
2022/10/16 14:49:42;;;;;;;;;;;;;;;;;;5087803;28;43345;-85
2022/10/16 14:52:09;;;;;;;;;;;;;;;;;;5085215;28;44626;-85
2022/10/16 14:54:36;;;;;;;;;;;;;;;;;;5083208;28;46183;-85
2022/10/16 14:57:03;;;;;;;;;;;;;;;;;;5083930;28;44125;-86
2022/10/16 14:59:30;;;;;;;;;;;;;;;;;;5084146;28;41378;-86
2022/10/16 15:01:57;;;;;;;;;;;;;;;;;;5087678;28;44867;-88
2022/10/16 15:04:24;;;;;;;;;;;;;;;;;;5084241;28;43674;-86
2022/10/16 15:06:51;;;;;;;;;;;;;;;;;;5088170;28;42413;-86
2022/10/16 15:09:18;;;;;;;;;;;;;;;;;;5085759;28;42580;-86
2022/10/16 15:11:47;;;;;;;;;;;;;;;;;;5085817;28;43025;-86
2022/10/16 15:14:14;;;;;;;;;;;;;;;;;;5085606;28;46506;-87
2022/10/16 15:16:46;;;;;;;;;;;;;;;;;;5090518;28;19958;-86
2022/10/16 15:19:13;;;;;;;;;;;;;;;;;;5083864;28;43535;-86
2022/10/16 15:21:40;;;;;;;;;;;;;;;;;;5089056;28;45739;-85
2022/10/16 15:24:07;;;;;;;;;;;;;;;;;;5078060;28;44059;-86
2022/10/16 15:26:34;;;;;;;;;;;;;;;;;;5077045;28;46078;-86
2022/10/16 15:29:01;;;;;;;;;;;;;;;;;;5083626;28;43388;-88
2022/10/16 15:31:28;;;;;;;;;;;;;;;;;;5087202;28;44687;-86
2022/10/16 15:34:01;;;;;;;;;;;;;;;;;;5080458;28;43095;-86
2022/10/16 15:36:29;;;;;;;;;;;;;;;;;;5080298;28;42232;-83
2022/10/16 15:38:59;;;;;;;;;;;;;;;;;;5080503;28;42479;-86
2022/10/16 15:41:26;;;;;;;;;;;;;;;;;;5085834;28;42842;-87
2022/10/16 15:43:53;;;;;;;;;;;;;;;;;;5083784;28;43080;-86
2022/10/16 15:46:21;;;;;;;;;;;;;;;;;;5084779;28;43866;-86
2022/10/16 15:48:49;;;;;;;;;;;;;;;;;;5088388;28;41357;-86
2022/10/16 15:51:16;;;;;;;;;;;;;;;;;;5088591;28;46601;-87
2022/10/16 15:53:43;;;;;;;;;;;;;;;;;;5089221;28;46349;-86
2022/10/16 15:56:10;;;;;;;;;;;;;;;;;;5088425;28;41047;-86
2022/10/16 15:58:41;;;;;;;;;;;;;;;;;;5084659;28;43664;-85
2022/10/16 16:01:10;;;;;;;;;;;;;;;;;;5081502;28;45895;-86
2022/10/16 16:03:37;;;;;;;;;;;;;;;;;;5082363;28;42943;-86
2022/10/16 16:06:04;;;;;;;;;;;;;;;;;;5083354;28;41714;-85
2022/10/16 16:08:31;;;;;;;;;;;;;;;;;;5083648;28;44091;-85
2022/10/16 16:10:58;;;;;;;;;;;;;;;;;;5081453;28;41520;-85
2022/10/16 16:13:25;;;;;;;;;;;;;;;;;;5082158;28;46844;-86
2022/10/16 16:15:52;;;;;;;;;;;;;;;;;;5081519;28;43578;-86
2022/10/16 16:18:20;;;;;;;;;;;;;;;;;;5082673;28;43623;-87
2022/10/16 16:20:48;;;;;;;;;;;;;;;;;;5084576;28;42264;-84
2022/10/16 16:23:15;;;;;;;;;;;;;;;;;;5082297;28;46094;-85
2022/10/16 16:25:42;;;;;;;;;;;;;;;;;;5081495;28;44725;-86
2022/10/16 16:28:10;;;;;;;;;;;;;;;;;;5083548;28;43495;-85
2022/10/16 16:30:49;;;;;;;;;;;;;;;;;;5095783;28;44875;-85
2022/10/16 16:33:17;;;;;;;;;;;;;;;;;;5082766;28;43199;-85
2022/10/16 16:35:44;;;;;;;;;;;;;;;;;;5100459;28;46330;-87
2022/10/16 16:38:11;;;;;;;;;;;;;;;;;;5099026;28;41620;-85
2022/10/16 16:40:40;;;;;;;;;;;;;;;;;;5083079;28;42736;-85
2022/10/16 16:43:08;;;;;;;;;;;;;;;;;;5087677;28;42841;-86
2022/10/16 16:45:36;;;;;;;;;;;;;;;;;;5083170;28;42314;-85
2022/10/16 16:48:05;;;;;;;;;;;;;;;;;;5086104;28;41616;-85
2022/10/16 16:50:32;;;;;;;;;;;;;;;;;;5088314;28;44830;-88
2022/10/16 16:52:59;;;;;;;;;;;;;;;;;;5082230;28;44456;-84